CheckWX is a tool to help pilots better visualize weather data.  It is not intended as a substitute for an official pre-flight weather briefing.

11:59:49 UTC

KCGI METAR
Cape Girardeau Regional Airport
Cape Girardeau, Missouri, USA
Current

1 hour ago

KCGI 241053Z AUTO 14010KT 4SM -RA BR OVC006 07/06 A2986 RMK AO2 CIG 005V009 SLP111 P0018 T00670056
Observed
Feb-24 @ 10:53 UTC
Wind
  • 140° at 10 KTS
Visibility
4 SM
Flight Rules
IFR
Conditions
Light Rain, Mist
Cloud Levels
  • Overcast at 600' AGL
Temperature
C / 45°F
Dewpoint
C / 43°F
Humidity
93%
Altimeter
29.86" Hg
Pressure
1011.22 hPa
Current Rain
0.18"
Previous

2 hours ago

KCGI 240953Z AUTO 14010KT 4SM RA BR OVC005 07/06 A2988 RMK AO2 SLP119 P0009 T00670056
Observed
Feb-24 @ 09:53 UTC
Wind
  • 140° at 10 KTS
Visibility
4 SM
Flight Rules
IFR
Conditions
Rain, Mist
Cloud Levels
  • Overcast at 500' AGL
Temperature
C / 45°F
Dewpoint
C / 43°F
Humidity
93%
Altimeter
29.88" Hg
Pressure
1011.82 hPa
Current Rain
0.09"
Previous

3 hours ago

KCGI 240902Z AUTO 15008KT 4SM -RA BR BKN007 BKN014 OVC039 07/06 A2992 RMK AO2 P0001 T00670056
Observed
Feb-24 @ 09:02 UTC
Wind
  • 150° at 8 KTS
Visibility
4 SM
Flight Rules
IFR
Conditions
Light Rain, Mist
Cloud Levels
  • Broken at 700' AGL
  • Broken at 1,400' AGL
  • Overcast at 3,900' AGL
Temperature
C / 45°F
Dewpoint
C / 43°F
Humidity
93%
Altimeter
29.92" Hg
Pressure
1013.22 hPa
Current Rain
0.01"